Time;durP1;ratioP1;P1;durP2;ratioP2;P2;SDS_P1;SDS_P2;PMS_P1;PMS_P2;Temp;Humidity;BMP_temperature;BMP_pressure;BME280_temperature;BME280_humidity;BME280_pressure;Samples;Min_cycle;Max_cycle;Signal;HPM_P1;HPM_P2
2021/12/19 00:00:48;;;;;;;13.23;6.35;;;8.50;99.90;;;;;;5001311;28;20045;-85
2021/12/19 00:08:52;;;;;;;15.07;6.53;;;8.50;99.90;;;;;;5013684;28;20298;-85
2021/12/19 00:11:21;;;;;;;12.32;7.13;;;8.50;99.90;;;;;;5000635;28;20458;-84
2021/12/19 00:13:47;;;;;;;12.93;6.93;;;8.50;99.90;;;;;;5011539;28;20041;-85
2021/12/19 00:16:13;;;;;;;18.45;8.13;;;8.50;99.90;;;;;;5016580;28;20120;-85
2021/12/19 00:18:43;;;;;;;17.92;6.88;;;8.50;99.90;;;;;;5017229;28;21197;-85
2021/12/19 00:21:10;;;;;;;14.25;7.68;;;8.50;99.90;;;;;;4998673;28;20133;-85
2021/12/19 00:23:40;;;;;;;12.32;7.32;;;8.60;99.90;;;;;;5033448;28;20235;-84
2021/12/19 00:26:05;;;;;;;15.48;8.18;;;8.60;99.90;;;;;;4999963;28;20067;-85
2021/12/19 00:28:31;;;;;;;14.38;7.72;;;8.60;99.90;;;;;;5013545;28;20077;-85
2021/12/19 00:30:57;;;;;;;13.27;8.18;;;8.60;99.90;;;;;;5000110;28;20048;-85
2021/12/19 00:33:28;;;;;;;17.83;8.38;;;8.60;99.90;;;;;;5016759;28;20038;-85
2021/12/19 00:35:54;;;;;;;13.23;7.97;;;8.60;99.90;;;;;;5012421;28;20030;-85
2021/12/19 00:38:20;;;;;;;15.88;7.45;;;8.60;99.90;;;;;;5014208;28;20092;-84
2021/12/19 00:40:46;;;;;;;10.80;6.72;;;8.60;99.90;;;;;;5017853;28;20075;-85
2021/12/19 00:43:23;;;;;;;8.38;5.80;;;8.60;99.90;;;;;;5013765;28;20493;-84
2021/12/19 00:45:50;;;;;;;9.95;5.05;;;8.50;99.90;;;;;;4999880;28;20038;-85
2021/12/19 00:48:16;;;;;;;9.00;4.63;;;8.60;99.90;;;;;;4999854;28;20045;-85
2021/12/19 00:50:42;;;;;;;6.05;3.60;;;8.50;99.90;;;;;;5010770;28;20030;-85
2021/12/19 00:53:09;;;;;;;5.45;3.10;;;8.50;99.90;;;;;;5011236;28;20045;-85
2021/12/19 00:55:35;;;;;;;5.97;2.72;;;8.50;99.90;;;;;;4970140;28;1200181;-85
2021/12/19 00:58:02;;;;;;;5.78;2.53;;;8.40;99.90;;;;;;5008978;28;20061;-85
2021/12/19 01:00:31;;;;;;;3.50;2.20;;;8.40;99.90;;;;;;5013349;28;20038;-85
2021/12/19 01:02:59;;;;;;;4.25;2.13;;;8.30;99.90;;;;;;5016784;28;20444;-85
2021/12/19 01:05:27;;;;;;;5.18;2.35;;;8.40;99.90;;;;;;5010447;28;20041;-85
2021/12/19 01:07:53;;;;;;;4.20;1.80;;;8.40;99.90;;;;;;5015774;28;20073;-85
2021/12/19 01:10:22;;;;;;;4.97;2.13;;;8.30;99.90;;;;;;5000924;28;20073;-85
2021/12/19 01:12:47;;;;;;;4.10;1.50;;;8.30;99.90;;;;;;5017680;28;20150;-85
2021/12/19 01:15:16;;;;;;;5.13;2.17;;;8.30;99.90;;;;;;5017545;28;20416;-84
2021/12/19 01:17:42;;;;;;;3.33;1.58;;;8.30;99.90;;;;;;5016407;28;20120;-84
2021/12/19 01:20:15;;;;;;;2.40;1.50;;;8.30;99.90;;;;;;5014736;28;20052;-85
2021/12/19 01:22:41;;;;;;;4.05;1.67;;;8.30;99.90;;;;;;5027465;28;20124;-85
2021/12/19 01:25:07;;;;;;;4.95;1.70;;;8.30;99.90;;;;;;5013463;28;20053;-85
2021/12/19 01:27:33;;;;;;;2.40;1.50;;;8.20;99.90;;;;;;5014246;28;20053;-85
2021/12/19 01:29:58;;;;;;;5.45;1.70;;;8.30;99.90;;;;;;5001390;28;20113;-85
2021/12/19 01:32:24;;;;;;;5.72;1.70;;;8.30;99.90;;;;;;5001464;28;20041;-83
2021/12/19 01:34:50;;;;;;;3.85;1.33;;;8.30;99.90;;;;;;5014932;28;20533;-85
2021/12/19 01:37:16;;;;;;;4.45;1.20;;;8.30;99.90;;;;;;4999601;28;20624;-84
2021/12/19 01:39:41;;;;;;;2.50;0.90;;;8.20;99.90;;;;;;5016120;28;20322;-84
2021/12/19 01:42:11;;;;;;;1.42;0.80;;;8.20;99.90;;;;;;5013123;28;20536;-85
2021/12/19 01:44:37;;;;;;;2.00;0.70;;;8.10;99.90;;;;;;5032343;28;20284;-85
2021/12/19 01:47:04;;;;;;;1.40;0.82;;;8.10;99.90;;;;;;4999598;28;20389;-84
2021/12/19 01:49:32;;;;;;;2.65;0.70;;;8.10;99.90;;;;;;5014495;28;20038;-85
2021/12/19 01:51:58;;;;;;;2.63;0.75;;;8.10;99.90;;;;;;5000284;28;20443;-85
2021/12/19 01:54:24;;;;;;;1.08;0.63;;;8.10;99.90;;;;;;5002046;28;20038;-85
2021/12/19 01:56:50;;;;;;;2.38;0.90;;;8.10;99.90;;;;;;4999596;28;20532;-85
2021/12/19 01:59:16;;;;;;;2.00;0.80;;;8.10;99.90;;;;;;5007754;28;20108;-85
2021/12/19 02:01:47;;;;;;;2.35;0.90;;;8.10;99.90;;;;;;5016181;28;20073;-85
2021/12/19 02:04:14;;;;;;;1.50;0.80;;;8.10;99.90;;;;;;5000622;28;20041;-85
2021/12/19 02:06:40;;;;;;;2.30;0.80;;;8.20;99.90;;;;;;5011885;28;20405;-85
2021/12/19 02:09:07;;;;;;;1.98;1.40;;;8.20;99.90;;;;;;5001562;28;20409;-84
2021/12/19 02:11:34;;;;;;;3.63;1.55;;;8.20;99.90;;;;;;4998236;28;20033;-84
2021/12/19 02:14:00;;;;;;;7.32;2.13;;;8.20;99.90;;;;;;5001707;28;20041;-84
2021/12/19 02:16:26;;;;;;;3.55;1.75;;;8.30;99.90;;;;;;4999772;28;20045;-84
2021/12/19 02:18:52;;;;;;;6.28;1.83;;;8.30;99.90;;;;;;4998682;28;20280;-84
2021/12/19 02:21:18;;;;;;;3.28;1.60;;;8.30;99.90;;;;;;5027375;28;20048;-85
2021/12/19 02:23:43;;;;;;;2.85;1.38;;;8.20;99.90;;;;;;5014342;28;20107;-84
2021/12/19 02:26:09;;;;;;;3.22;1.10;;;8.20;99.90;;;;;;4998170;28;20204;-84
2021/12/19 02:28:35;;;;;;;2.10;1.20;;;8.20;99.90;;;;;;5003285;28;20111;-85
2021/12/19 02:31:00;;;;;;;4.45;1.23;;;8.20;99.90;;;;;;5034962;28;20133;-84
2021/12/19 02:33:32;;;;;;;2.55;0.80;;;8.20;99.90;;;;;;5004421;28;20037;-84
2021/12/19 02:36:17;;;;;;;2.05;1.00;;;8.10;99.90;;;;;;5016510;28;20033;-84
2021/12/19 02:49:28;;;;;;;2.70;1.27;;;8.10;99.90;;;;;;5033388;28;20473;-84
2021/12/19 02:51:55;;;;;;;3.30;1.45;;;8.10;99.90;;;;;;5015126;28;20038;-85
2021/12/19 02:54:22;;;;;;;2.53;1.40;;;8.10;99.90;;;;;;5033073;28;20231;-85
2021/12/19 02:56:49;;;;;;;4.40;2.00;;;8.10;99.90;;;;;;5002514;28;20107;-85
2021/12/19 02:59:15;;;;;;;3.22;1.50;;;8.10;99.90;;;;;;5003625;28;20469;-84
2021/12/19 03:01:43;;;;;;;2.70;1.70;;;8.20;99.90;;;;;;5034564;28;20033;-85
2021/12/19 03:04:09;;;;;;;4.20;2.00;;;8.20;99.90;;;;;;5018096;28;20045;-85
2021/12/19 03:06:46;;;;;;;2.40;1.50;;;8.10;99.90;;;;;;5015383;28;20072;-85
2021/12/19 03:09:14;;;;;;;1.85;1.05;;;8.10;99.90;;;;;;5003602;28;20054;-84
2021/12/19 03:20:10;;;;;;;2.00;1.00;;;8.00;99.90;;;;;;5019599;28;20044;-85
2021/12/19 03:22:36;;;;;;;2.08;0.90;;;8.00;99.90;;;;;;5001011;28;20029;-85
2021/12/19 03:25:03;;;;;;;1.73;0.82;;;8.00;99.90;;;;;;5017322;28;20094;-84
2021/12/19 03:27:28;;;;;;;0.98;0.52;;;8.00;99.90;;;;;;5016635;28;20380;-85
2021/12/19 03:29:54;;;;;;;1.02;0.60;;;7.90;99.90;;;;;;5001235;28;20055;-85
2021/12/19 03:32:20;;;;;;;5.50;0.80;;;7.90;99.90;;;;;;5015650;28;20045;-85
2021/12/19 03:34:45;;;;;;;2.95;0.80;;;7.90;99.90;;;;;;5015666;28;20034;-84
2021/12/19 03:37:11;;;;;;;2.05;0.95;;;7.90;99.90;;;;;;5000154;28;20037;-85
2021/12/19 03:39:54;;;;;;;2.30;1.00;;;8.00;99.90;;;;;;5007129;28;20133;-85
2021/12/19 03:42:20;;;;;;;2.63;1.20;;;8.00;99.90;;;;;;5001840;28;20071;-85
2021/12/19 03:44:46;;;;;;;3.53;1.40;;;8.00;99.90;;;;;;5001674;28;20380;-85
2021/12/19 03:47:12;;;;;;;5.30;1.15;;;8.00;99.90;;;;;;5019132;28;20140;-85
2021/12/19 03:49:37;;;;;;;3.65;1.52;;;8.00;99.90;;;;;;5002025;28;20052;-85
2021/12/19 03:52:03;;;;;;;9.63;1.67;;;8.10;99.90;;;;;;5012501;28;20040;-85
2021/12/19 03:54:29;;;;;;;4.43;1.70;;;8.10;99.90;;;;;;5007390;28;20039;-85
2021/12/19 03:56:54;;;;;;;4.50;1.55;;;8.10;99.90;;;;;;5017236;28;20107;-84
2021/12/19 03:59:20;;;;;;;3.72;1.77;;;8.10;99.90;;;;;;5017313;28;20845;-84
2021/12/19 04:01:50;;;;;;;5.45;2.17;;;8.20;99.90;;;;;;5016476;28;20037;-85
2021/12/19 04:04:16;;;;;;;5.80;1.95;;;8.10;99.90;;;;;;5002469;28;20500;-84
2021/12/19 04:06:41;;;;;;;7.22;2.13;;;8.10;99.90;;;;;;5017314;28;20083;-85
2021/12/19 04:09:07;;;;;;;7.80;2.28;;;8.20;99.90;;;;;;5002453;28;20061;-85
2021/12/19 04:11:33;;;;;;;5.40;1.98;;;8.20;99.90;;;;;;5014682;28;20064;-84
2021/12/19 04:13:58;;;;;;;4.07;1.60;;;8.10;99.90;;;;;;5002382;28;20256;-85
2021/12/19 04:16:24;;;;;;;4.78;1.70;;;8.10;99.90;;;;;;5017848;28;20469;-85
2021/12/19 04:18:50;;;;;;;10.00;2.70;;;8.10;99.90;;;;;;5013961;28;20045;-85
2021/12/19 04:21:16;;;;;;;5.28;1.95;;;8.20;99.90;;;;;;5013907;28;20065;-85
2021/12/19 04:23:41;;;;;;;4.68;1.98;;;8.10;99.90;;;;;;5003491;28;20085;-85
2021/12/19 04:26:07;;;;;;;6.72;2.53;;;8.10;99.90;;;;;;4998987;28;20055;-85
2021/12/19 04:28:33;;;;;;;6.15;2.50;;;8.20;99.90;;;;;;5013863;28;20041;-85
2021/12/19 04:31:00;;;;;;;8.18;2.90;;;8.20;99.90;;;;;;5015082;28;20056;-85
2021/12/19 04:33:28;;;;;;;8.68;3.70;;;8.20;99.90;;;;;;5031529;28;20891;-85
2021/12/19 04:35:59;;;;;;;11.32;3.78;;;8.20;99.90;;;;;;5011845;28;20033;-85
2021/12/19 04:52:35;;;;;;;13.48;4.15;;;8.20;99.90;;;;;;5014763;28;20041;-85
2021/12/19 05:00:08;;;;;;;15.73;4.35;;;8.20;99.90;;;;;;5013032;28;20367;-86
2021/12/19 05:02:47;;;;;;;14.65;4.25;;;8.20;99.90;;;;;;4998400;28;20199;-85
2021/12/19 05:05:28;;;;;;;16.35;4.63;;;8.20;99.90;;;;;;5016141;28;20515;-85
2021/12/19 05:16:08;;;;;;;12.77;5.20;;;8.10;99.90;;;;;;5011191;28;20052;-85
2021/12/19 05:18:37;;;;;;;20.65;5.47;;;8.10;99.90;;;;;;5001739;28;20401;-85
2021/12/19 05:21:12;;;;;;;18.27;5.88;;;8.10;99.90;;;;;;5009987;28;20911;-85
2021/12/19 05:24:02;;;;;;;13.77;5.32;;;8.00;99.90;;;;;;5013242;28;20033;-85
2021/12/19 05:26:23;;;;;;;16.05;5.00;;;8.10;99.90;;;;;;5014142;28;20045;-85
2021/12/19 05:28:52;;;;;;;15.70;5.55;;;8.00;99.90;;;;;;5015842;28;20033;-85
2021/12/19 05:31:21;;;;;;;18.35;5.90;;;8.00;99.90;;;;;;5014813;28;20119;-85
2021/12/19 05:33:47;;;;;;;19.23;6.55;;;8.00;99.90;;;;;;5000205;28;20117;-85
2021/12/19 05:46:58;;;;;;;18.05;7.60;;;8.00;99.90;;;;;;5012915;28;20060;-85
2021/12/19 05:49:24;;;;;;;18.75;7.57;;;8.00;99.90;;;;;;5015429;28;20381;-85
2021/12/19 05:51:50;;;;;;;18.98;7.95;;;7.90;99.90;;;;;;5009473;28;20539;-85
2021/12/19 05:54:16;;;;;;;23.88;7.75;;;7.90;99.90;;;;;;5012726;28;20120;-84
2021/12/19 05:56:43;;;;;;;20.30;7.07;;;8.00;99.90;;;;;;5014307;28;20136;-85
2021/12/19 05:59:09;;;;;;;21.55;8.00;;;8.00;99.90;;;;;;5011975;28;20371;-84
2021/12/19 06:01:36;;;;;;;23.02;8.25;;;8.00;99.90;;;;;;5013254;28;20152;-84
2021/12/19 06:04:01;;;;;;;17.88;7.90;;;8.00;99.90;;;;;;5032205;28;20056;-85
2021/12/19 06:06:27;;;;;;;24.08;7.78;;;8.00;99.90;;;;;;5032991;28;20079;-85
2021/12/19 06:08:54;;;;;;;23.98;8.75;;;8.00;99.90;;;;;;5018776;28;20392;-84
2021/12/19 06:11:20;;;;;;;23.70;7.93;;;8.00;99.90;;;;;;5003215;28;20516;-85
2021/12/19 06:13:45;;;;;;;22.05;9.23;;;8.00;99.90;;;;;;5018007;28;20026;-85
2021/12/19 06:16:11;;;;;;;24.88;8.65;;;8.00;99.90;;;;;;5018488;28;20187;-84
2021/12/19 06:18:37;;;;;;;22.15;8.45;;;8.00;99.90;;;;;;5019042;28;20400;-85
2021/12/19 06:21:04;;;;;;;23.50;8.30;;;8.00;99.90;;;;;;5029671;28;20045;-84
2021/12/19 06:23:30;;;;;;;25.23;7.82;;;8.00;99.90;;;;;;5017548;28;20037;-84
2021/12/19 06:25:55;;;;;;;23.80;7.88;;;7.90;99.90;;;;;;5003364;28;20044;-85
2021/12/19 06:28:22;;;;;;;25.38;7.78;;;8.00;99.90;;;;;;5002842;28;20037;-85
2021/12/19 06:30:48;;;;;;;21.73;6.60;;;7.90;99.90;;;;;;5004173;28;20064;-84
2021/12/19 06:33:17;;;;;;;13.38;5.38;;;8.00;99.90;;;;;;5002615;28;20033;-86
2021/12/19 06:35:43;;;;;;;18.52;6.55;;;8.00;99.90;;;;;;5001927;28;20520;-85
2021/12/19 06:38:09;;;;;;;16.45;6.28;;;8.00;99.90;;;;;;5017756;28;20048;-85
2021/12/19 06:40:35;;;;;;;20.23;5.85;;;8.00;99.90;;;;;;5014131;28;20113;-84
2021/12/19 06:43:01;;;;;;;16.80;5.78;;;8.00;99.90;;;;;;5004380;28;20053;-84
2021/12/19 06:45:27;;;;;;;21.65;7.05;;;8.00;99.90;;;;;;5020063;28;20106;-85
2021/12/19 06:47:53;;;;;;;23.45;6.78;;;7.90;99.90;;;;;;5002000;28;20404;-85
2021/12/19 06:50:19;;;;;;;19.17;5.75;;;8.00;99.90;;;;;;5010869;28;20493;-85
2021/12/19 06:52:47;;;;;;;18.45;6.47;;;7.90;99.90;;;;;;4999651;28;20045;-84
2021/12/19 06:55:15;;;;;;;18.95;5.65;;;7.90;99.90;;;;;;5020365;28;20093;-85
2021/12/19 06:57:41;;;;;;;22.02;6.15;;;7.90;99.90;;;;;;5017707;28;20038;-85
2021/12/19 07:00:10;;;;;;;15.15;6.15;;;7.90;99.90;;;;;;5001086;28;20535;-85
2021/12/19 07:02:36;;;;;;;20.95;6.00;;;7.90;99.90;;;;;;5017766;28;20040;-84
2021/12/19 07:05:03;;;;;;;20.92;5.80;;;8.00;99.90;;;;;;5033946;28;20034;-84
2021/12/19 07:07:30;;;;;;;18.67;5.50;;;7.90;99.90;;;;;;5011537;28;20052;-85
2021/12/19 07:09:56;;;;;;;15.27;5.00;;;7.90;99.90;;;;;;5016120;28;20439;-85
2021/12/19 07:12:26;;;;;;;14.88;5.00;;;7.90;99.90;;;;;;5014623;28;20104;-85
2021/12/19 07:14:52;;;;;;;18.75;5.07;;;7.90;99.90;;;;;;5016588;28;20516;-84
2021/12/19 07:17:18;;;;;;;15.38;4.72;;;7.90;99.90;;;;;;5002651;28;20029;-84
2021/12/19 07:19:44;;;;;;;14.95;4.32;;;7.90;99.90;;;;;;5005488;28;20034;-85
2021/12/19 07:22:09;;;;;;;20.15;4.30;;;7.90;99.90;;;;;;5002547;28;20411;-85
2021/12/19 07:24:35;;;;;;;14.18;3.70;;;7.90;99.90;;;;;;5016582;28;20041;-84
2021/12/19 07:27:01;;;;;;;15.85;4.53;;;7.90;99.90;;;;;;5000353;28;20037;-85
2021/12/19 07:29:26;;;;;;;16.73;3.88;;;8.00;99.90;;;;;;5001582;28;20117;-85
2021/12/19 07:31:52;;;;;;;19.92;3.60;;;7.90;99.90;;;;;;5016150;28;20380;-85
2021/12/19 07:34:18;;;;;;;10.18;3.38;;;7.90;99.90;;;;;;5017249;28;20026;-85
2021/12/19 07:36:50;;;;;;;19.38;4.13;;;7.90;99.90;;;;;;5013231;28;20424;-85
2021/12/19 07:39:38;;;;;;;11.95;4.05;;;7.90;99.90;;;;;;5002518;28;20065;-84
2021/12/19 07:42:09;;;;;;;7.47;2.70;;;7.90;99.90;;;;;;5000996;28;20107;-84
2021/12/19 07:44:36;;;;;;;16.23;3.42;;;8.00;99.90;;;;;;5014070;28;20033;-85
2021/12/19 07:47:03;;;;;;;13.88;3.30;;;8.00;99.90;;;;;;5001924;28;20045;-85
2021/12/19 07:49:29;;;;;;;8.18;3.17;;;8.00;99.90;;;;;;5013505;28;20045;-84
2021/12/19 07:51:55;;;;;;;13.68;3.83;;;7.90;99.90;;;;;;5014792;28;20392;-85
2021/12/19 07:54:21;;;;;;;11.60;3.35;;;8.00;99.90;;;;;;5001565;28;20025;-85
2021/12/19 07:56:48;;;;;;;8.75;2.85;;;8.00;99.90;;;;;;5015637;28;20176;-85
2021/12/19 07:59:14;;;;;;;12.90;3.35;;;8.00;99.90;;;;;;5013824;28;20602;-85
2021/12/19 08:01:40;;;;;;;16.70;4.45;;;8.00;99.90;;;;;;5000867;28;20304;-84
2021/12/19 08:04:05;;;;;;;12.55;3.50;;;8.00;99.90;;;;;;5017315;28;20331;-85
2021/12/19 08:06:31;;;;;;;15.65;3.60;;;8.00;99.90;;;;;;5013226;28;20124;-85
2021/12/19 08:08:58;;;;;;;15.00;3.30;;;8.00;99.90;;;;;;5002360;28;20096;-84
2021/12/19 08:11:40;;;;;;;16.27;3.88;;;7.90;99.90;;;;;;5002041;28;20152;-84
2021/12/19 08:14:07;;;;;;;14.00;3.63;;;8.00;99.90;;;;;;5015488;28;20034;-85
2021/12/19 08:16:33;;;;;;;13.98;3.72;;;8.00;99.90;;;;;;5001755;28;20060;-85
2021/12/19 08:18:59;;;;;;;15.07;3.85;;;8.00;99.90;;;;;;5018318;28;20436;-85
2021/12/19 08:21:25;;;;;;;15.82;4.15;;;8.00;99.90;;;;;;4997439;28;20049;-85
2021/12/19 08:23:50;;;;;;;17.00;4.28;;;8.00;99.90;;;;;;5001716;28;20072;-85
2021/12/19 08:26:16;;;;;;;15.25;4.00;;;8.00;99.90;;;;;;5034693;28;20052;-85
2021/12/19 08:28:45;;;;;;;14.43;4.50;;;8.00;99.90;;;;;;5017248;28;20116;-84
2021/12/19 08:31:10;;;;;;;13.52;4.20;;;8.10;99.90;;;;;;5002603;28;20072;-85
2021/12/19 08:33:36;;;;;;;16.85;4.38;;;8.10;99.90;;;;;;5016442;28;20487;-84
2021/12/19 08:36:02;;;;;;;19.35;4.38;;;8.10;99.90;;;;;;5000460;28;20060;-85
2021/12/19 08:38:28;;;;;;;18.50;4.20;;;8.10;99.90;;;;;;5002308;28;20473;-84
2021/12/19 08:40:53;;;;;;;20.65;4.45;;;8.10;99.90;;;;;;5000384;28;20064;-85
2021/12/19 08:43:20;;;;;;;16.15;3.90;;;8.10;99.90;;;;;;5001619;28;20021;-84
2021/12/19 08:45:49;;;;;;;12.88;4.18;;;8.20;99.90;;;;;;5016053;28;20038;-84
2021/12/19 08:48:18;;;;;;;14.65;3.58;;;8.20;99.90;;;;;;5032487;28;20124;-85
2021/12/19 08:50:44;;;;;;;16.90;3.78;;;8.30;99.90;;;;;;5013777;28;20041;-84
2021/12/19 08:53:10;;;;;;;18.02;3.97;;;8.20;99.90;;;;;;4997104;28;20211;-85
2021/12/19 08:55:36;;;;;;;16.80;3.80;;;8.30;99.90;;;;;;5013608;28;20555;-85
2021/12/19 08:58:02;;;;;;;9.45;3.35;;;8.30;99.90;;;;;;5000067;28;20103;-85
2021/12/19 09:00:28;;;;;;;15.70;3.20;;;8.30;99.90;;;;;;5001881;28;20029;-85
2021/12/19 09:02:55;;;;;;;14.90;3.50;;;8.30;99.90;;;;;;5002544;28;20369;-85
2021/12/19 09:05:23;;;;;;;16.40;4.07;;;8.30;99.90;;;;;;5001485;28;20052;-85
2021/12/19 09:07:50;;;;;;;14.80;3.47;;;8.40;99.90;;;;;;5031728;28;20046;-85
2021/12/19 09:10:16;;;;;;;15.70;3.65;;;8.30;99.90;;;;;;5016212;28;20033;-85
2021/12/19 09:12:44;;;;;;;13.98;3.20;;;8.30;99.90;;;;;;5001235;28;20136;-85
2021/12/19 09:15:11;;;;;;;13.27;3.03;;;8.30;99.90;;;;;;5012821;28;20073;-84
2021/12/19 09:17:37;;;;;;;13.20;3.30;;;8.30;99.90;;;;;;5014580;28;20045;-86
2021/12/19 09:20:05;;;;;;;11.40;2.80;;;8.30;99.90;;;;;;5011898;28;20025;-85
2021/12/19 09:22:31;;;;;;;18.17;3.50;;;8.30;99.90;;;;;;4997014;28;20116;-85
2021/12/19 09:24:57;;;;;;;14.32;3.15;;;8.30;99.90;;;;;;5000608;28;20116;-84
2021/12/19 09:27:25;;;;;;;16.33;3.40;;;8.30;99.90;;;;;;5000876;28;20048;-85
2021/12/19 09:29:52;;;;;;;13.15;3.72;;;8.30;99.90;;;;;;5015165;28;20080;-84
2021/12/19 09:32:17;;;;;;;12.30;2.58;;;8.30;99.90;;;;;;5014328;28;20520;-85
2021/12/19 09:34:43;;;;;;;7.53;2.60;;;8.30;99.90;;;;;;5011970;28;20033;-85
2021/12/19 09:37:09;;;;;;;13.50;2.72;;;8.30;99.90;;;;;;4994795;28;20041;-85
2021/12/19 09:39:35;;;;;;;8.82;2.50;;;8.40;99.90;;;;;;5000967;28;20107;-85
2021/12/19 09:42:08;;;;;;;14.20;3.42;;;8.30;99.90;;;;;;5005839;28;20488;-85
2021/12/19 09:44:35;;;;;;;7.97;2.50;;;8.30;99.90;;;;;;5019858;28;20165;-84
2021/12/19 09:47:01;;;;;;;15.27;3.67;;;8.40;99.90;;;;;;5018784;28;20476;-84
2021/12/19 09:49:34;;;;;;;13.98;2.83;;;8.40;99.90;;;;;;5024011;28;20090;-85
2021/12/19 09:52:02;;;;;;;12.57;2.92;;;8.40;99.90;;;;;;5002466;28;20124;-85
2021/12/19 09:54:28;;;;;;;10.80;2.67;;;8.40;99.90;;;;;;5021317;28;20033;-85
2021/12/19 09:56:53;;;;;;;12.25;3.58;;;8.50;99.90;;;;;;5015638;28;20083;-85
2021/12/19 09:59:21;;;;;;;10.70;2.88;;;8.40;99.90;;;;;;5006235;28;22194;-85
2021/12/19 10:01:51;;;;;;;15.35;3.05;;;8.40;99.90;;;;;;5016529;28;20037;-85
2021/12/19 10:04:36;;;;;;;12.60;3.08;;;8.50;99.90;;;;;;5002963;28;20133;-85
2021/12/19 10:07:19;;;;;;;13.57;3.28;;;8.50;99.90;;;;;;4998334;28;20041;-85
2021/12/19 10:10:13;;;;;;;13.00;3.58;;;8.50;99.90;;;;;;5021220;28;20038;-85
2021/12/19 10:15:41;;;;;;;10.30;2.85;;;8.60;99.90;;;;;;5017735;28;20037;-85
2021/12/19 10:18:17;;;;;;;12.45;3.50;;;8.50;99.90;;;;;;5016090;28;20347;-85
2021/12/19 10:20:57;;;;;;;15.80;3.67;;;8.50;99.90;;;;;;4997294;28;20658;-84
2021/12/19 10:23:28;;;;;;;18.02;3.78;;;8.50;99.90;;;;;;5002099;28;20480;-85
2021/12/19 10:25:59;;;;;;;15.07;3.55;;;8.50;99.90;;;;;;5003420;28;20120;-85
2021/12/19 10:28:27;;;;;;;19.85;4.13;;;8.50;99.90;;;;;;5020297;28;20076;-85
2021/12/19 10:30:53;;;;;;;8.27;3.17;;;8.60;99.90;;;;;;5036436;28;20041;-85
2021/12/19 10:33:22;;;;;;;17.17;3.78;;;8.50;99.90;;;;;;5019183;28;20038;-85
2021/12/19 10:35:50;;;;;;;17.45;3.65;;;8.50;99.90;;;;;;4999356;28;20390;-85
2021/12/19 10:38:26;;;;;;;14.40;3.40;;;8.50;99.90;;;;;;5004136;28;20072;-85
2021/12/19 10:40:53;;;;;;;22.70;4.57;;;8.50;99.90;;;;;;5020373;28;20249;-84
2021/12/19 10:43:20;;;;;;;15.02;3.83;;;8.50;99.90;;;;;;5034303;28;20088;-85
2021/12/19 10:45:52;;;;;;;14.05;3.80;;;8.50;99.90;;;;;;5003253;28;20075;-85
2021/12/19 10:48:18;;;;;;;17.52;3.13;;;8.50;99.90;;;;;;5014981;28;20583;-85
2021/12/19 10:51:08;;;;;;;12.63;3.67;;;8.40;99.90;;;;;;5031882;28;20057;-85
2021/12/19 10:53:43;;;;;;;13.07;3.25;;;8.40;99.90;;;;;;5035702;28;20038;-86
2021/12/19 10:56:10;;;;;;;11.85;2.85;;;8.40;99.90;;;;;;5016253;28;20058;-85
2021/12/19 10:58:43;;;;;;;13.43;3.05;;;8.30;99.90;;;;;;5016144;28;20113;-85
2021/12/19 11:01:14;;;;;;;12.05;3.05;;;8.30;99.90;;;;;;5002165;28;20030;-85
2021/12/19 11:03:42;;;;;;;16.63;3.30;;;8.30;99.90;;;;;;5015728;28;20371;-85
2021/12/19 11:06:25;;;;;;;9.95;2.92;;;8.40;99.90;;;;;;5014218;28;20038;-85
2021/12/19 11:08:52;;;;;;;7.88;2.65;;;8.30;99.90;;;;;;5000980;28;20041;-85
2021/12/19 11:11:32;;;;;;;14.75;3.33;;;8.40;99.90;;;;;;4999387;28;20107;-85
2021/12/19 11:13:58;;;;;;;12.20;2.72;;;8.30;99.90;;;;;;5016373;28;20451;-85
2021/12/19 11:16:24;;;;;;;11.95;2.67;;;8.30;99.90;;;;;;5017414;28;20319;-85
2021/12/19 11:18:50;;;;;;;13.95;2.70;;;8.40;99.90;;;;;;5004436;28;20036;-85
2021/12/19 11:21:17;;;;;;;16.38;3.72;;;8.40;99.90;;;;;;4997734;28;20045;-85
2021/12/19 11:23:43;;;;;;;19.60;3.40;;;8.30;99.90;;;;;;5004060;28;20128;-85
2021/12/19 11:26:10;;;;;;;12.52;2.80;;;8.40;99.90;;;;;;5000109;28;20117;-85
2021/12/19 11:28:36;;;;;;;14.00;2.67;;;8.40;99.90;;;;;;5025285;28;20394;-84
2021/12/19 11:31:03;;;;;;;13.65;3.47;;;8.40;99.90;;;;;;5013481;28;20128;-85
2021/12/19 11:33:41;;;;;;;20.77;3.28;;;8.40;99.90;;;;;;5016783;28;20484;-84
2021/12/19 11:36:08;;;;;;;11.77;3.10;;;8.40;99.90;;;;;;4988212;28;20038;-85
2021/12/19 11:38:36;;;;;;;16.25;3.03;;;8.40;99.90;;;;;;5014761;28;20091;-84
2021/12/19 11:41:12;;;;;;;11.93;2.60;;;8.40;99.90;;;;;;5014530;28;20121;-85
2021/12/19 11:43:39;;;;;;;13.68;2.90;;;8.40;99.90;;;;;;5001417;28;20519;-85
2021/12/19 11:46:14;;;;;;;17.52;3.50;;;8.40;99.90;;;;;;5015201;28;20041;-85
2021/12/19 11:48:40;;;;;;;;;;;8.40;99.90;;;;;;5002185;28;20030;-85
2021/12/19 11:51:17;;;;;;;14.00;3.25;;;8.50;99.90;;;;;;5003130;28;20394;-84
2021/12/19 11:53:43;;;;;;;14.25;2.83;;;8.50;99.90;;;;;;5035823;28;20124;-85
2021/12/19 11:56:17;;;;;;;13.35;3.38;;;8.50;99.90;;;;;;5000811;28;20195;-85
2021/12/19 11:58:48;;;;;;;15.73;3.38;;;8.50;99.90;;;;;;5018216;28;20366;-85
2021/12/19 12:01:26;;;;;;;13.00;2.92;;;8.50;99.90;;;;;;5013177;28;20433;-84
2021/12/19 12:04:25;;;;;;;10.35;2.72;;;8.50;99.90;;;;;;5002205;28;20099;-84
2021/12/19 12:06:56;;;;;;;17.20;3.50;;;8.60;99.90;;;;;;5011202;28;20152;-84
2021/12/19 12:09:32;;;;;;;16.42;3.20;;;8.60;99.90;;;;;;5015871;28;20052;-85
2021/12/19 12:12:05;;;;;;;20.33;3.72;;;8.50;99.90;;;;;;5020188;28;20059;-85
2021/12/19 12:14:49;;;;;;;19.08;3.50;;;8.60;99.90;;;;;;4998409;28;20041;-85
2021/12/19 12:17:22;;;;;;;15.43;3.30;;;8.50;99.90;;;;;;5014380;28;20484;-84
2021/12/19 12:19:51;;;;;;;13.60;3.08;;;8.50;99.90;;;;;;5001999;28;20052;-85
2021/12/19 12:22:37;;;;;;;13.57;3.30;;;8.50;99.90;;;;;;5013046;28;20176;-85
2021/12/19 12:25:06;;;;;;;19.15;3.00;;;8.50;99.90;;;;;;5001427;28;20551;-84
2021/12/19 12:27:40;;;;;;;20.35;3.97;;;8.60;99.90;;;;;;5000183;28;20117;-85
2021/12/19 12:30:10;;;;;;;17.63;3.88;;;8.60;99.90;;;;;;4994079;28;20060;-85
2021/12/19 12:32:35;;;;;;;16.42;3.78;;;8.60;99.90;;;;;;4997817;28;20077;-85
2021/12/19 12:35:03;;;;;;;18.08;3.22;;;8.60;99.90;;;;;;5017406;28;20065;-85
2021/12/19 12:37:29;;;;;;;15.30;5.03;;;8.70;99.90;;;;;;5021070;28;20151;-86
2021/12/19 12:40:42;;;;;;;18.00;3.63;;;8.60;99.90;;;;;;5004201;28;20045;-85
2021/12/19 12:43:10;;;;;;;17.38;4.28;;;8.60;99.90;;;;;;5016820;28;20496;-85
2021/12/19 12:46:07;;;;;;;17.02;3.35;;;8.70;99.90;;;;;;5032375;28;20048;-85
2021/12/19 12:48:38;;;;;;;17.45;3.58;;;8.60;99.90;;;;;;5018899;28;20388;-85
2021/12/19 12:51:08;;;;;;;15.80;3.15;;;8.60;99.90;;;;;;5026345;28;20540;-85
2021/12/19 12:53:40;;;;;;;11.00;2.95;;;8.60;99.90;;;;;;5014215;28;20029;-84
2021/12/19 12:56:34;;;;;;;17.58;3.10;;;8.60;99.90;;;;;;5012912;28;20552;-85
2021/12/19 12:59:01;;;;;;;13.25;2.83;;;8.60;99.90;;;;;;5018830;28;20048;-86
2021/12/19 13:01:31;;;;;;;19.35;2.88;;;8.60;99.90;;;;;;5017134;28;20059;-84
2021/12/19 13:04:09;;;;;;;15.02;3.13;;;8.60;99.90;;;;;;5017818;28;20499;-86
2021/12/19 13:06:44;;;;;;;12.93;2.42;;;8.50;99.90;;;;;;5008850;28;20104;-86
2021/12/19 13:09:17;;;;;;;15.40;2.95;;;8.60;99.90;;;;;;5001426;28;20342;-86
2021/12/19 13:11:45;;;;;;;13.98;3.17;;;8.60;99.90;;;;;;5000261;28;20311;-85
2021/12/19 13:14:28;;;;;;;21.88;3.85;;;8.50;99.90;;;;;;5003245;28;20380;-86
2021/12/19 13:17:06;;;;;;;14.57;2.88;;;8.50;99.90;;;;;;5016089;28;20396;-84
2021/12/19 13:19:40;;;;;;;18.15;3.97;;;8.50;99.90;;;;;;4998868;28;20044;-85
2021/12/19 13:22:10;;;;;;;15.98;3.65;;;8.50;99.90;;;;;;5002006;28;20133;-85
2021/12/19 13:24:36;;;;;;;11.98;2.92;;;8.50;99.90;;;;;;5016873;28;20048;-85
2021/12/19 13:27:14;;;;;;;13.65;3.30;;;8.50;99.90;;;;;;5013732;28;20042;-85
2021/12/19 13:29:43;;;;;;;19.85;3.20;;;8.50;99.90;;;;;;4998057;28;20106;-85
2021/12/19 13:32:32;;;;;;;15.93;3.08;;;8.60;99.90;;;;;;5014584;28;20038;-85
2021/12/19 13:35:00;;;;;;;14.80;3.03;;;8.60;99.90;;;;;;5031946;28;20117;-84
2021/12/19 13:37:32;;;;;;;18.52;2.78;;;8.50;99.90;;;;;;5014099;28;20041;-84
2021/12/19 13:40:13;;;;;;;20.25;3.03;;;8.60;99.90;;;;;;5012521;28;20125;-85
2021/12/19 13:42:49;;;;;;;13.45;2.95;;;8.60;99.90;;;;;;5016351;28;20492;-85
2021/12/19 13:45:24;;;;;;;17.13;3.22;;;8.60;99.90;;;;;;5001360;28;20469;-84
2021/12/19 13:47:51;;;;;;;15.55;3.10;;;8.60;99.90;;;;;;5017744;28;20060;-84
2021/12/19 13:50:17;;;;;;;15.80;3.00;;;8.60;99.90;;;;;;5001206;28;20041;-84
2021/12/19 13:52:43;;;;;;;16.48;3.35;;;8.60;99.90;;;;;;5013565;28;20084;-84
2021/12/19 13:55:11;;;;;;;17.50;2.78;;;8.60;99.90;;;;;;5016755;28;20145;-85
2021/12/19 13:57:37;;;;;;;13.23;3.63;;;8.60;99.90;;;;;;5020784;28;20173;-86
2021/12/19 14:00:13;;;;;;;14.93;2.97;;;8.60;99.90;;;;;;5019423;28;20138;-84
2021/12/19 14:02:39;;;;;;;15.82;3.58;;;8.70;99.90;;;;;;5001338;28;20502;-85
2021/12/19 14:05:39;;;;;;;17.13;4.13;;;8.60;99.90;;;;;;5015171;28;20134;-85